Aeroporto :
LOGIN :

Iscrizione | Disclaimer

   EN    FR    IT 

 










Sommario :    VFR   VFR Marginale   IFR   IFR Intensivo   IFR Molto Intensivo
Visibilità : 
Base nubi : 
>= 8 km
>= 3000ft
5 / 8 km
1000 / 3000 ft
1500m / 5 km
500 / 1000 ft
800 / 1500m
200 / 500 ft
< 800m
< 200 ft
Simboli :   Temporali  Nebbia  Neve Forte  Precipitazioni Forti  Vento > 20 kt
SIGMETs :   Varie  Temporali  Ghiacco  Turbolenza  Onda orograficha  Ceneri Vulcaniche






- Altitudine del aeroporto : 1989 ft
- Codice IATA : KLV


LKKV - Karlovy Vary

ULTIMO METAR :
  • 121230Z VRB02KT 9999 SCT010 BKN015 01/M00 Q1002 R29/290195

METARs OBSOLETI :
  • 121200Z 20003KT 140V260 9999 SCT010 BKN013 01/M01 Q1003 R29/290195
  • 121130Z 25004KT 220V290 9999 BKN005 00/M00 Q1003 R29/290195
  • 121100Z 26004KT 230V300 9999 BKN004 00/M00 Q1003 R29/290195
  • 121030Z 26004KT 9999 BKN004 00/M01 Q1004 R29/590295
  • 121000Z 28003KT 9999 SCT004 BKN007 00/M01 Q1004 R29/590295

TAF TAF LKKV
Valido dal 12 a 12 ore il 13 a 18 ore UTC


121100Z 1212/1318 26004KT 9999 OVC015
TEMPO 1212/1301 4000 -SN BKN008
PROB30
TEMPO 1212/1216 2000 SN BKN003
BECMG 1218/1220 16006KT
TEMPO 1302/1308 9999 SCT015



MetMap, La meteo Aeronautica in un colpo d'occhio ! - Copyright ORBIFLY Dicembre 2007 - Disclaimer

ORBIFLY MET'MAP TEAM :

Programmazione e sviluppo : Alexandra Zaïnal
Concezione : Baudouin d'Aumeries
Aiuto per la programmazione : Marc-Olivier Méhu
Supporto tecnico e logistico : Manuel Goepfert
Aiuto per la traduzione : Arnaldo La Scala

Contatto : metmap@orbifly.com




FONTI E CREDITI :

   NOAA